Coronel Pringles, Argentina
Current Conditions -  °F | °C
As of 10:00 AM on Saturday 20 Dec 2014 (Local Time) from SAZM Reporting Station
Clear Clear  
Wind Chill: 19°   Ceiling: Unl
Heat Index: 19°   Visibility: 6mi
Dew Point: 16°   Wind: 9mph
Humidity: 83%   Direction: 320°NW
Pressure: 29.59"   Gusts: NA
Location:  37.97°S, 61.37°W
Report Text: SAZM 201300Z 32008KT CAVOK 19/16 Q1002
Loading
Personal Weather Stations






























Interactive Weather Map New forecast layout! Learn more

10-Day Weather Forecast

Advertisements
Track Severe Weather on mobile